Terminal Aerodrome Forecast
Issued by NWS Bismarck, ND

Home | Current Version | Previous Version | Text Only | Print | Product List | Glossary Off
Versions: 1 2 3 4 5 6 7 8 9 10 11 12 13 14 15 16 17 18 19 20

000
FTUS43 KBIS 191123
TAFBIS
TAF
KBIS 191123Z 1912/2012 08011KT P6SM BKN140 WS020/17040KT
     FM191500 15015G23KT P6SM BKN120
     FM192200 26009KT P6SM VCTS BKN110CB
     FM200100 30010KT P6SM OVC090
     FM200600 27008KT P6SM BKN080=

USA.gov is the U.S. government's official web portal to all federal, state and local government web resources and services.